Tuesday, February 20, 2018, 9:41 AM GMT
Back to Local

CYGK, Kingston, Ont.

Location: , , Canada Lat: 44.217
Local Time: 9:41 AM GMT ( 9:41 GMT) Lon: -76.6
Time Zone: GMT Elev: 305 ft

Show me the last for .
Show Decoded

2018-02-20 04:00 METAR CYGK 200400Z 15006KT 3/8SM FG VV002 03/03 A3005 RMK FG8 LAST STFD OBS/NEXT
                 201100 UTC SLP182 =
2018-02-20 03:00 METAR CYGK 200300Z 17004KT 100V200 3/8SM -RA FG VV002 03/02 A3006 RMK FG8 SLP183
                 =
2018-02-20 02:47 METAR CYGK 200247Z 18003KT 160V240 3/8SM FG VV002 02/02 A3006 RMK FG8 SLP185 =
2018-02-20 02:36 METAR CYGK 200236Z 21003KT 180V290 1/2SM -RA FG VV003 02/02 A3007 RMK FG8 SLP187
                 =
2018-02-20 02:06 METAR CYGK 200206Z 17005KT 3/4SM -RA BR OVC003 03/02 A3007 RMK SF8 SLP188 =
2018-02-20 02:00 METAR CYGK 200200Z 17006KT 1SM -RA BR SCT003 OVC011 03/02 A3008 RMK SF4SC4
                 SLP190 =
2018-02-20 01:00 METAR CYGK 200100Z 21005G16KT 120V230 6SM -RA BR SCT004 OVC011 02/02 A3007 RMK
                 SF3SC5 SLP188 =
2018-02-20 00:43 METAR CYGK 200043Z 18010G16KT 160V240 6SM -RA BR SCT005 OVC014 03/02 A3007 RMK
                 SF3SC5 SLP189 =
2018-02-20 00:00 METAR CYGK 200000Z 18010G18KT 2 1/2SM -RA BR SCT004 OVC012 02/02 A3009 RMK
                 SF4SC4 SLP196 =
2018-02-19 23:33 METAR CYGK 192333Z 17012G17KT 3SM -RA BR OVC013 02/01 A3010 RMK SC8 SLP197 =
2018-02-19 23:00 METAR CYGK 192300Z 19009KT 6SM -RA BR OVC016 02/01 A3009 RMK SC8 SLP194 =
2018-02-19 22:26 METAR CYGK 192226Z 17011KT 5SM -RA BR FEW003 OVC014 02/02 A3008 RMK SF2SC6
                 SLP192 =
2018-02-19 22:00 METAR CYGK 192200Z 16012KT 4SM BR BKN003 OVC016 02/02 A3007 RMK SF5SC3 SLP190 =
2018-02-19 21:52 METAR CYGK 192152Z 17011KT 2 1/2SM BR BKN003 OVC016 02/02 A3007 RMK ST5SC3
                 SLP189 =
2018-02-19 21:00 METAR CYGK 192100Z 17011KT 1 1/2SM -RA BR BKN005 OVC012 02/01 A3008 RMK SF6SC2
                 SLP192 =
2018-02-19 20:38 METAR CYGK 192038Z 17011G17KT 2 1/2SM -RA BR BKN012 OVC028 02/01 A3009 RMK
                 SC6SC2 SLP196 =
2018-02-19 20:30 METAR CYGK 192030Z 17014KT 4SM -RA BR BKN014 OVC028 02/01 A3010 RMK SC5SC3
                 SLP199 =
2018-02-19 20:00 METAR CYGK 192000Z 18010KT 12SM BKN030 OVC055 02/M00 A3010 RMK SC6SC2 SLP199 =
2018-02-19 19:15 METAR CYGK 191915Z 17007KT 10SM SCT030 OVC055 02/M00 A3010 RMK SC3SC5 SLP200 =
2018-02-19 19:00 METAR CYGK 191900Z 17010KT 8SM -RA OVC055 03/00 A3010 RMK SC8 SLP199 =
2018-02-19 18:12 METAR CYGK 191812Z 19011G17KT 12SM -RA OVC060 02/M01 A3013 RMK SC8 SLP208 =
2018-02-19 18:00 METAR CYGK 191800Z 18012KT 12SM BKN060 OVC120 03/M01 A3012 RMK SC5AC3 SLP205 =
2018-02-19 17:00 METAR CYGK 191700Z 17013KT 15SM FEW070 BKN120 OVC250 03/M02 A3012 RMK AC2AC4CI2
                 PRESFR SLP206 =
2018-02-19 16:00 METAR CYGK 191600Z 17014G19KT 15SM FEW140 BKN250 03/M02 A3016 RMK AC2CI4 SLP219
                 =
2018-02-19 15:00 METAR CYGK 191500Z 17015G22KT 15SM FEW200 BKN250 02/M02 A3018 RMK CI2CI3 SLP226
                 =
2018-02-19 14:00 METAR CYGK 191400Z 17015G21KT 15SM SCT220 BKN250 01/M03 A3019 RMK CI4CI3 SLP230
                 =
2018-02-19 13:00 METAR CYGK 191300Z 17008KT 15SM FEW160 BKN250 00/M04 A3021 RMK AC1CI7 AC TR
                 SLP238 =
2018-02-19 12:00 METAR CYGK 191200Z 18009KT 15SM FEW160 SCT210 BKN250 M01/M04 A3021 RMK AC1CI3CI4
                 AC TR SLP237 =
2018-02-19 11:00 METAR CYGK 191100Z 17007KT 15SM FEW160 BKN210 M01/M04 A3021 RMK AC1CI4 SLP236 =

Support USWX by starting your Amazon purchase here.